Etusivu
METAR-TAF:

METAR-TAF

Lentoasemat :

N’Djamenan kansainvälinen lentoasema

N'Djamena, Tšad

Leveyspiiri: 12-08N, Pituuspiiri: 015-02E, korkeus merenpinnasta: 295 m

Tämänhetkinen sää

Tämä raportti tehtiin 39 minuuttia sitten, kello 10.00 UTC
Tuuli 9 kn pohjoisesta, vaihdellen pohjoisen ja idän/koillisen välillä
Lämpötila 28°C
Kosteus 13%
Ilmanpaine 1015 hPa
Näkyvyys 10 km tai enemmän
ei pilviä alle 1500 m:ssä eikä cumulonimbus-pilviä

METAR: FTTJ 151000Z 01009KT 010V070 CAVOK 28/M03 Q1015 NOSIG

Aika: 11:39 (10:39 UTC)

Sääennuste

Tämä raportti tehtiin 5 tuntia ja 39 minuuttia sitten, kello 05.00 UTC
Ennuste voimassa 15. päivästä klo 06 UTC - 16. päivään klo 12 UTC
Tuuli 8 kn pohjoisesta
Näkyvyys: 8000 m
Ajoittain
16. päivästä klo 02 UTC - 16. päivään klo 08 UTC
Näkyvyys: 2500 m
laajalle levinnyttä pölyä

TAF: FTTJ 150500Z 1506/1612 36008KT 8000 NSC TEMPO 1602/1608 2500 DU

Säähavainnot ja -ennusteet yli 4000 lentoasemalta (METAR- ja TAF-raportit).

Käytössä olevat sääasemat on merkitty karttaan keltaisilla ja punaisilla pisteillä.

Aseta hiiri pisteen päälle nähdäksesi sääaseman nimen.

Klikkaa sitten nähdäksesi säähavainnot ja -ennusteet.

Kartan vaihtaminen: klikkaa mustalla rastilla varustettuja vihreitä pisteitä, niin voit zoomata sisään; viivalla varustettua vihreää pistettä, niin voit zoomata ulos tai vihreitä nuolia, niin pääset viereisille kartoille.


METAR-TAF: